createdAt,value
2022-08-14T00:01:11.414Z,20.59
2022-08-14T00:03:44.210Z,20.52
2022-08-14T00:06:25.782Z,20.51
2022-08-14T00:09:01.083Z,20.52
2022-08-14T00:11:33.399Z,20.51
2022-08-14T00:14:05.093Z,20.49
2022-08-14T00:16:40.606Z,20.47
2022-08-14T00:19:18.599Z,20.47
2022-08-14T00:21:51.706Z,20.52
2022-08-14T00:24:28.880Z,20.51
2022-08-14T00:27:02.871Z,20.51
2022-08-14T00:29:40.668Z,20.50
2022-08-14T00:32:52.399Z,20.51
2022-08-14T00:35:06.111Z,20.54
2022-08-14T00:37:40.808Z,20.53
2022-08-14T00:40:27.420Z,20.51
2022-08-14T00:43:05.656Z,20.48
2022-08-14T00:45:37.298Z,20.45
2022-08-14T00:48:10.777Z,20.45
2022-08-14T00:50:42.287Z,20.46
2022-08-14T00:53:16.897Z,20.43
2022-08-14T00:55:49.264Z,20.39
2022-08-14T00:58:33.815Z,20.39
2022-08-14T01:01:05.377Z,20.36
2022-08-14T01:03:42.312Z,20.32
2022-08-14T01:06:18.662Z,20.29
2022-08-14T01:08:58.224Z,20.23
2022-08-14T01:11:31.710Z,20.19
2022-08-14T01:14:25.596Z,20.15
2022-08-14T01:16:59.873Z,20.12
2022-08-14T01:19:50.897Z,20.08
2022-08-14T01:22:26.707Z,20.06
2022-08-14T01:24:58.800Z,20.03
2022-08-14T01:27:30.320Z,19.95
2022-08-14T01:30:08.519Z,19.92
2022-08-14T01:32:42.467Z,19.90
2022-08-14T01:35:20.850Z,19.91
2022-08-14T01:38:06.465Z,19.92
2022-08-14T01:40:41.671Z,19.94
2022-08-14T01:43:14.850Z,19.96
2022-08-14T01:46:06.138Z,19.96
2022-08-14T01:48:38.932Z,19.97
2022-08-14T01:51:19.503Z,19.97
2022-08-14T01:53:55.398Z,19.96
2022-08-14T01:56:37.292Z,19.98
2022-08-14T01:59:18.167Z,20.03
2022-08-14T02:01:58.724Z,20.06
2022-08-14T02:04:55.839Z,20.10
2022-08-14T02:07:34.545Z,20.12
2022-08-14T02:10:15.855Z,20.12
2022-08-14T02:12:48.875Z,20.14
2022-08-14T02:15:26.154Z,20.15
2022-08-14T02:18:01.785Z,20.15
2022-08-14T02:20:34.094Z,20.17
2022-08-14T02:23:08.358Z,20.18
2022-08-14T02:25:40.601Z,20.16
2022-08-14T02:28:24.092Z,20.15
2022-08-14T02:31:04.047Z,20.13
2022-08-14T02:33:42.049Z,20.15
2022-08-14T02:37:03.486Z,20.17
2022-08-14T02:39:05.596Z,20.16
2022-08-14T02:41:39.981Z,20.15
2022-08-14T02:44:21.664Z,20.17
2022-08-14T02:47:01.789Z,20.18
2022-08-14T02:49:34.144Z,20.17
2022-08-14T02:52:56.596Z,20.17
2022-08-14T02:54:59.364Z,20.20
2022-08-14T02:57:39.325Z,20.21
2022-08-14T03:00:18.597Z,20.21
2022-08-14T03:02:59.006Z,20.20
2022-08-14T03:05:36.135Z,20.22
2022-08-14T03:08:08.976Z,20.22
2022-08-14T03:10:42.053Z,20.21
2022-08-14T03:13:22.026Z,20.20
2022-08-14T03:15:57.787Z,20.21
2022-08-14T03:18:30.532Z,20.19
2022-08-14T03:21:03.763Z,20.22
2022-08-14T03:23:38.190Z,20.20
2022-08-14T03:26:12.895Z,20.20
2022-08-14T03:28:50.316Z,20.18
2022-08-14T03:31:26.057Z,20.20
2022-08-14T03:34:00.573Z,20.20
2022-08-14T03:37:50.922Z,20.18
2022-08-14T03:39:27.591Z,20.21
2022-08-14T03:42:00.044Z,20.20
2022-08-14T03:45:27.449Z,20.21
2022-08-14T03:47:46.039Z,20.22
2022-08-14T03:50:30.744Z,20.19
2022-08-14T03:53:03.264Z,20.20
2022-08-14T03:55:34.963Z,20.20
2022-08-14T03:58:07.143Z,20.22
2022-08-14T04:00:43.933Z,20.22
2022-08-14T04:03:24.169Z,20.22
2022-08-14T04:05:56.769Z,20.22
2022-08-14T04:08:31.835Z,20.24
2022-08-14T04:11:07.955Z,20.24
2022-08-14T04:13:42.589Z,20.25
2022-08-14T04:16:14.097Z,20.26
2022-08-14T04:18:46.640Z,20.29
2022-08-14T04:21:18.156Z,20.30
2022-08-14T04:23:57.239Z,20.29
2022-08-14T04:26:42.902Z,20.33
2022-08-14T04:29:16.279Z,20.39
2022-08-14T04:32:59.927Z,20.45
2022-08-14T04:34:42.770Z,20.50
2022-08-14T04:37:42.342Z,20.58
2022-08-14T04:40:32.775Z,20.67
2022-08-14T04:43:38.471Z,20.73
2022-08-14T04:46:55.334Z,20.73
2022-08-14T04:49:02.953Z,20.78
2022-08-14T04:51:55.447Z,20.86
2022-08-14T04:54:28.284Z,20.94
2022-08-14T04:56:59.811Z,21.04
2022-08-14T04:59:31.676Z,21.11
2022-08-14T05:02:04.130Z,21.20
2022-08-14T05:04:39.931Z,21.33
2022-08-14T05:07:16.937Z,21.46
2022-08-14T05:09:50.000Z,21.61
2022-08-14T05:13:10.989Z,21.78
2022-08-14T05:15:13.697Z,21.95
2022-08-14T05:17:58.747Z,22.12
2022-08-14T05:21:59.529Z,22.32
2022-08-14T05:23:29.011Z,22.54
2022-08-14T05:26:02.004Z,22.76
2022-08-14T05:28:33.913Z,22.90
2022-08-14T05:31:08.564Z,23.03
2022-08-14T05:33:41.050Z,23.07
2022-08-14T05:36:16.708Z,23.21
2022-08-14T05:38:48.975Z,23.30
2022-08-14T05:41:21.830Z,23.37
2022-08-14T05:43:54.002Z,23.57
2022-08-14T05:46:25.996Z,23.92
2022-08-14T05:48:57.821Z,24.15
2022-08-14T05:51:30.588Z,24.42
2022-08-14T05:54:13.566Z,24.61
2022-08-14T05:56:48.307Z,24.79
2022-08-14T05:59:20.214Z,24.90
2022-08-14T06:02:07.875Z,25.05
2022-08-14T06:04:49.517Z,25.24
2022-08-14T06:07:21.123Z,25.40
2022-08-14T06:09:53.413Z,25.62
2022-08-14T06:12:31.444Z,25.65
2022-08-14T06:15:16.967Z,25.78
2022-08-14T06:17:58.489Z,25.94
2022-08-14T06:20:31.416Z,25.89
2022-08-14T06:23:06.084Z,25.96
2022-08-14T06:25:37.607Z,26.02
2022-08-14T06:28:28.049Z,25.98
2022-08-14T06:31:00.074Z,26.01
2022-08-14T06:35:04.565Z,25.92
2022-08-14T06:36:23.758Z,25.77
2022-08-14T06:38:56.044Z,25.77
2022-08-14T06:41:56.676Z,25.78
2022-08-14T06:44:20.428Z,25.47
2022-08-14T06:47:02.899Z,25.15
2022-08-14T06:49:40.075Z,25.05
2022-08-14T06:52:16.364Z,24.80
2022-08-14T06:54:48.530Z,24.74
2022-08-14T06:57:21.611Z,24.82
2022-08-14T06:59:53.634Z,24.97
2022-08-14T07:02:46.762Z,25.19
2022-08-14T07:05:37.983Z,25.13
2022-08-14T07:08:29.502Z,25.17
2022-08-14T07:11:04.262Z,25.33
2022-08-14T07:13:36.364Z,25.65
2022-08-14T07:16:07.943Z,26.26
2022-08-14T07:18:40.749Z,26.53
2022-08-14T07:21:12.404Z,26.88
2022-08-14T07:23:44.183Z,27.07
2022-08-14T07:26:16.929Z,27.00
2022-08-14T07:28:49.410Z,27.11
2022-08-14T07:31:20.946Z,27.09
2022-08-14T07:33:53.550Z,27.30
2022-08-14T07:36:26.377Z,27.30
2022-08-14T07:39:00.272Z,27.57
2022-08-14T07:41:33.823Z,27.59
2022-08-14T07:44:32.418Z,27.65
2022-08-14T07:46:59.001Z,27.65
2022-08-14T07:49:30.846Z,27.81
2022-08-14T07:52:03.396Z,28.01
2022-08-14T07:54:35.249Z,28.32
2022-08-14T07:57:12.063Z,28.43
2022-08-14T07:59:47.117Z,28.84
2022-08-14T08:02:21.973Z,29.14
2022-08-14T08:04:59.223Z,29.35
2022-08-14T08:07:32.385Z,29.48
2022-08-14T08:10:46.715Z,29.65
2022-08-14T08:13:16.190Z,29.85
2022-08-14T08:15:47.740Z,29.76
2022-08-14T08:18:20.438Z,29.83
2022-08-14T08:21:00.694Z,30.06
2022-08-14T08:23:40.495Z,30.14
2022-08-14T08:26:15.896Z,30.32
2022-08-14T08:28:49.724Z,30.54
2022-08-14T08:31:21.238Z,30.79
2022-08-14T08:33:53.101Z,30.74
2022-08-14T08:36:25.845Z,30.90
2022-08-14T08:39:14.586Z,30.95
2022-08-14T08:41:53.518Z,30.66
2022-08-14T08:44:32.703Z,30.53
2022-08-14T08:47:07.700Z,31.13
2022-08-14T08:49:43.247Z,31.53
2022-08-14T08:52:24.970Z,31.51
2022-08-14T08:55:04.846Z,31.32
2022-08-14T08:57:38.189Z,31.16
2022-08-14T09:00:24.643Z,31.37
2022-08-14T09:02:57.934Z,31.04
2022-08-14T09:05:29.467Z,31.19
2022-08-14T09:08:03.466Z,31.32
2022-08-14T09:10:56.341Z,31.54
2022-08-14T09:13:30.757Z,31.56
2022-08-14T09:16:19.115Z,32.02
2022-08-14T09:18:53.348Z,31.92
2022-08-14T09:21:31.246Z,31.58
2022-08-14T09:24:28.156Z,31.40
2022-08-14T09:26:55.299Z,31.62
2022-08-14T09:29:28.960Z,31.28
2022-08-14T09:32:03.714Z,31.43
2022-08-14T09:34:58.808Z,31.21
2022-08-14T09:37:31.692Z,31.44
2022-08-14T09:40:04.890Z,31.82
2022-08-14T09:42:49.761Z,32.24
2022-08-14T09:45:23.783Z,32.49
2022-08-14T09:47:55.726Z,32.50
2022-08-14T09:50:28.370Z,32.50
2022-08-14T09:53:03.803Z,32.51
2022-08-14T09:55:42.621Z,32.51
2022-08-14T09:58:14.877Z,32.90
2022-08-14T10:00:52.768Z,33.35
2022-08-14T10:03:24.809Z,33.75
2022-08-14T10:06:06.621Z,33.75
2022-08-14T10:08:40.340Z,33.43
2022-08-14T10:11:12.188Z,33.66
2022-08-14T10:13:53.199Z,34.12
2022-08-14T10:16:27.286Z,34.32
2022-08-14T10:19:07.277Z,34.65
2022-08-14T10:21:58.458Z,34.64
2022-08-14T10:24:37.002Z,35.12
2022-08-14T10:27:09.410Z,34.78
2022-08-14T10:29:40.975Z,34.67
2022-08-14T10:32:17.433Z,33.90
2022-08-14T10:34:52.860Z,34.54
2022-08-14T10:37:27.785Z,34.94
2022-08-14T10:40:01.677Z,34.88
2022-08-14T10:42:38.006Z,34.95
2022-08-14T10:45:09.736Z,35.19
2022-08-14T10:48:08.576Z,35.77
2022-08-14T10:50:33.099Z,35.49
2022-08-14T10:53:07.966Z,34.60
2022-08-14T10:55:45.054Z,34.47
2022-08-14T10:58:17.846Z,34.68
2022-08-14T11:00:49.473Z,35.08
2022-08-14T11:03:55.376Z,35.28
2022-08-14T11:06:20.392Z,35.22
2022-08-14T11:08:52.904Z,35.20
2022-08-14T11:11:35.734Z,34.87
2022-08-14T11:14:09.522Z,35.47
2022-08-14T11:16:41.706Z,35.49
2022-08-14T11:19:25.329Z,36.46
2022-08-14T11:21:58.215Z,36.25
2022-08-14T11:24:54.270Z,36.03
2022-08-14T11:27:27.071Z,36.25
2022-08-14T11:30:51.714Z,35.17
2022-08-14T11:32:57.561Z,35.74
2022-08-14T11:35:44.272Z,35.68
2022-08-14T11:38:21.659Z,35.84
2022-08-14T11:40:53.255Z,34.91
2022-08-14T11:43:29.550Z,35.86
2022-08-14T11:46:03.730Z,35.51
2022-08-14T11:48:59.598Z,35.45
2022-08-14T11:51:30.372Z,35.38
2022-08-14T11:54:03.318Z,35.83
2022-08-14T11:56:35.702Z,35.95
2022-08-14T11:59:10.291Z,36.07
2022-08-14T12:01:42.654Z,36.21
2022-08-14T12:04:21.777Z,36.57
2022-08-14T12:07:05.464Z,35.70
2022-08-14T12:09:38.044Z,36.02
2022-08-14T12:12:10.877Z,36.22
2022-08-14T12:14:44.370Z,36.14
2022-08-14T12:17:23.952Z,35.65
2022-08-14T12:19:56.489Z,35.76
2022-08-14T12:22:29.697Z,36.13
2022-08-14T12:25:04.130Z,36.60
2022-08-14T12:27:41.581Z,36.07
2022-08-14T12:30:20.839Z,35.18
2022-08-14T12:32:53.359Z,35.38
2022-08-14T12:35:25.022Z,34.82
2022-08-14T12:37:56.906Z,35.53
2022-08-14T12:40:31.656Z,35.73
2022-08-14T12:43:03.540Z,35.81
2022-08-14T12:45:35.809Z,36.06
2022-08-14T12:48:21.527Z,35.74
2022-08-14T12:50:59.250Z,34.72
2022-08-14T12:53:31.116Z,34.23
2022-08-14T12:56:22.286Z,34.06
2022-08-14T12:59:01.821Z,34.52
2022-08-14T13:01:56.762Z,35.18
2022-08-14T13:04:25.256Z,35.09
2022-08-14T13:06:56.779Z,34.96
2022-08-14T13:09:37.812Z,35.34
2022-08-14T13:12:31.232Z,35.19
2022-08-14T13:15:01.553Z,35.08
2022-08-14T13:17:41.054Z,35.73
2022-08-14T13:20:24.345Z,36.06
2022-08-14T13:22:56.723Z,35.49
2022-08-14T13:25:28.314Z,34.65
2022-08-14T13:28:00.451Z,34.00
2022-08-14T13:30:32.122Z,34.84
2022-08-14T13:33:07.369Z,35.33
2022-08-14T13:35:48.000Z,35.60
2022-08-14T13:38:20.650Z,35.55
2022-08-14T13:40:55.255Z,36.09
2022-08-14T13:43:36.455Z,36.76
2022-08-14T13:46:08.198Z,37.13
2022-08-14T13:48:44.004Z,36.83
2022-08-14T13:51:16.351Z,36.37
2022-08-14T13:54:07.212Z,36.54
2022-08-14T13:56:40.005Z,36.66
2022-08-14T13:59:11.952Z,36.71
2022-08-14T14:01:52.092Z,36.35
2022-08-14T14:04:24.172Z,36.71
2022-08-14T14:06:56.203Z,36.84
2022-08-14T14:09:32.567Z,36.85
2022-08-14T14:12:38.551Z,36.90
2022-08-14T14:15:12.220Z,36.98
2022-08-14T14:17:44.381Z,36.33
2022-08-14T14:20:34.653Z,37.10
2022-08-14T14:23:12.072Z,37.21
2022-08-14T14:25:46.155Z,37.48
2022-08-14T14:28:24.235Z,37.43
2022-08-14T14:30:57.174Z,37.36
2022-08-14T14:33:49.695Z,37.66
2022-08-14T14:36:23.370Z,37.88
2022-08-14T14:38:56.452Z,37.80
2022-08-14T14:41:37.360Z,36.67
2022-08-14T14:44:13.481Z,37.40
2022-08-14T14:46:50.532Z,36.89
2022-08-14T14:49:31.652Z,36.67
2022-08-14T14:52:23.465Z,36.86
2022-08-14T14:54:59.457Z,36.79
2022-08-14T14:57:35.378Z,37.35
2022-08-14T15:00:12.823Z,37.60
2022-08-14T15:02:44.864Z,37.45
2022-08-14T15:05:17.440Z,37.60
2022-08-14T15:07:51.128Z,37.81
2022-08-14T15:10:27.880Z,37.46
2022-08-14T15:13:07.231Z,37.45
2022-08-14T15:15:39.578Z,37.38
2022-08-14T15:18:36.232Z,37.25
2022-08-14T15:21:02.983Z,36.83
2022-08-14T15:23:44.526Z,36.86
2022-08-14T15:26:24.021Z,36.84
2022-08-14T15:29:05.781Z,36.75
2022-08-14T15:31:38.741Z,37.04
2022-08-14T15:34:45.751Z,37.04
2022-08-14T15:37:03.848Z,36.76
2022-08-14T15:39:38.530Z,37.00
2022-08-14T15:42:16.345Z,37.05
2022-08-14T15:44:56.645Z,37.15
2022-08-14T15:47:30.938Z,37.09
2022-08-14T15:50:05.044Z,36.52
2022-08-14T15:52:37.420Z,36.19
2022-08-14T15:55:09.624Z,36.25
2022-08-14T15:57:51.262Z,36.03
2022-08-14T16:00:52.686Z,35.42
2022-08-14T16:03:27.346Z,35.12
2022-08-14T16:06:10.874Z,34.67
2022-08-14T16:08:50.287Z,34.40
2022-08-14T16:11:33.244Z,33.76
2022-08-14T16:14:06.817Z,33.80
2022-08-14T16:16:51.618Z,33.65
2022-08-14T16:19:32.035Z,33.51
2022-08-14T16:22:58.883Z,33.26
2022-08-14T16:25:02.485Z,33.23
2022-08-14T16:27:39.620Z,33.11
2022-08-14T16:30:24.920Z,33.00
2022-08-14T16:33:02.053Z,32.78
2022-08-14T16:35:42.942Z,32.49
2022-08-14T16:38:45.395Z,32.44
2022-08-14T16:41:29.464Z,32.30
2022-08-14T16:44:01.652Z,32.27
2022-08-14T16:46:34.681Z,32.11
2022-08-14T16:49:07.340Z,31.92
2022-08-14T16:51:39.529Z,31.96
2022-08-14T16:54:34.323Z,31.86
2022-08-14T16:57:05.084Z,31.71
2022-08-14T16:59:52.180Z,31.61
2022-08-14T17:02:27.321Z,31.56
2022-08-14T17:04:59.495Z,31.57
2022-08-14T17:07:31.573Z,31.60
2022-08-14T17:10:09.814Z,31.48
2022-08-14T17:12:43.992Z,31.42
2022-08-14T17:15:16.781Z,31.39
2022-08-14T17:17:57.812Z,31.21
2022-08-14T17:20:39.802Z,31.09
2022-08-14T17:23:21.448Z,31.11
2022-08-14T17:26:01.679Z,31.04
2022-08-14T17:31:25.418Z,30.89
2022-08-14T17:34:18.699Z,30.84
2022-08-14T17:36:52.599Z,30.67
2022-08-14T17:39:24.202Z,30.60
2022-08-14T17:42:02.783Z,30.58
2022-08-14T17:44:45.666Z,30.44
2022-08-14T17:47:17.855Z,30.31
2022-08-14T17:49:51.670Z,30.23
2022-08-14T17:52:34.474Z,30.22
2022-08-14T17:55:07.533Z,30.12
2022-08-14T17:57:41.008Z,30.07
2022-08-14T18:00:14.677Z,30.00
2022-08-14T18:02:50.502Z,29.97
2022-08-14T18:06:07.676Z,29.96
2022-08-14T18:08:32.643Z,29.87
2022-08-14T18:11:06.992Z,29.81
2022-08-14T18:13:51.731Z,29.76
2022-08-14T18:16:24.228Z,29.70
2022-08-14T18:18:56.154Z,29.66
2022-08-14T18:21:56.130Z,29.60
2022-08-14T18:24:29.455Z,29.49
2022-08-14T18:27:02.263Z,29.43
2022-08-14T18:29:42.542Z,29.29
2022-08-14T18:32:14.614Z,29.07
2022-08-14T18:34:50.996Z,28.79
2022-08-14T18:37:23.143Z,28.50
2022-08-14T18:40:03.541Z,28.30
2022-08-14T18:42:36.318Z,27.99
2022-08-14T18:45:12.707Z,27.91
2022-08-14T18:50:39.553Z,27.63
2022-08-14T18:53:12.902Z,27.50
2022-08-14T18:55:53.124Z,27.52
2022-08-14T18:58:30.932Z,27.45
2022-08-14T19:01:04.512Z,27.35
2022-08-14T19:03:37.866Z,27.31
2022-08-14T19:06:09.865Z,27.21
2022-08-14T19:08:41.790Z,27.16
2022-08-14T19:11:13.518Z,27.13
2022-08-14T19:13:51.005Z,27.12
2022-08-14T19:16:26.520Z,27.09
2022-08-14T19:19:00.378Z,27.07
2022-08-14T19:21:33.066Z,26.96
2022-08-14T19:24:04.593Z,26.93
2022-08-14T19:26:56.599Z,26.83
2022-08-14T19:29:37.800Z,26.81
2022-08-14T19:32:13.045Z,26.81
2022-08-14T19:34:52.780Z,26.81
2022-08-14T19:37:24.882Z,26.79
2022-08-14T19:40:10.999Z,26.83
2022-08-14T19:42:47.335Z,26.81
2022-08-14T19:45:20.478Z,26.78
2022-08-14T19:47:57.856Z,26.77
2022-08-14T19:50:38.869Z,26.72
2022-08-14T19:53:17.558Z,26.71
2022-08-14T19:55:49.990Z,26.73
2022-08-14T19:58:27.998Z,26.69
2022-08-14T20:01:01.751Z,26.73
2022-08-14T20:03:59.172Z,26.71
2022-08-14T20:06:33.030Z,26.66
2022-08-14T20:11:03.252Z,26.63
2022-08-14T20:12:02.552Z,26.62
2022-08-14T20:14:37.075Z,26.60
2022-08-14T20:17:09.920Z,26.58
2022-08-14T20:19:41.916Z,26.54
2022-08-14T20:22:35.564Z,26.45
2022-08-14T20:25:05.509Z,26.39
2022-08-14T20:27:40.104Z,26.36
2022-08-14T20:30:33.159Z,26.27
2022-08-14T20:33:07.294Z,26.20
2022-08-14T20:35:41.740Z,26.12
2022-08-14T20:38:30.838Z,26.08
2022-08-14T20:41:05.858Z,25.97
2022-08-14T20:43:57.015Z,25.94
2022-08-14T20:46:29.869Z,25.83
2022-08-14T20:49:02.367Z,25.80
2022-08-14T20:51:37.513Z,25.75
2022-08-14T20:54:09.466Z,25.71
2022-08-14T20:56:41.414Z,25.67
2022-08-14T20:59:17.392Z,25.59
2022-08-14T21:01:55.279Z,25.57
2022-08-14T21:04:27.243Z,25.52
2022-08-14T21:07:24.986Z,25.50
2022-08-14T21:10:06.431Z,25.45
2022-08-14T21:13:25.377Z,25.44
2022-08-14T21:15:35.289Z,25.44
2022-08-14T21:18:07.779Z,25.33
2022-08-14T21:20:40.697Z,25.27
2022-08-14T21:23:13.912Z,25.24
2022-08-14T21:25:45.842Z,25.16
2022-08-14T21:28:29.651Z,25.17
2022-08-14T21:31:02.265Z,25.18
2022-08-14T21:33:34.418Z,25.21
2022-08-14T21:36:08.008Z,25.21
2022-08-14T21:38:42.480Z,25.24
2022-08-14T21:41:43.066Z,25.23
2022-08-14T21:44:17.893Z,25.20
2022-08-14T21:46:53.323Z,25.20
2022-08-14T21:49:32.236Z,25.17
2022-08-14T21:52:52.109Z,25.17
2022-08-14T21:55:09.172Z,25.16
2022-08-14T21:58:44.848Z,25.15
2022-08-14T22:00:39.772Z,25.09
2022-08-14T22:03:16.471Z,25.10
2022-08-14T22:05:50.036Z,25.08
2022-08-14T22:08:26.941Z,25.06
2022-08-14T22:10:59.345Z,25.02
2022-08-14T22:13:32.111Z,24.99
2022-08-14T22:16:04.519Z,24.94
2022-08-14T22:18:36.584Z,24.93
2022-08-14T22:21:16.766Z,24.88
2022-08-14T22:23:48.461Z,24.84
2022-08-14T22:26:30.586Z,24.83
2022-08-14T22:29:05.511Z,24.80
2022-08-14T22:31:41.674Z,24.74
2022-08-14T22:34:15.548Z,24.67
2022-08-14T22:36:51.224Z,24.61
2022-08-14T22:40:16.918Z,24.60
2022-08-14T22:42:21.170Z,24.52
2022-08-14T22:44:56.389Z,24.46
2022-08-14T22:47:40.489Z,24.42
2022-08-14T22:50:30.094Z,24.33
2022-08-14T22:53:04.301Z,24.29
2022-08-14T22:55:38.456Z,24.24
2022-08-14T22:58:10.410Z,24.21
2022-08-14T23:00:50.910Z,24.17
2022-08-14T23:03:22.848Z,24.11
2022-08-14T23:05:54.787Z,24.08
2022-08-14T23:08:59.171Z,24.03
2022-08-14T23:11:17.833Z,23.98
2022-08-14T23:13:49.325Z,23.96
2022-08-14T23:16:22.112Z,23.92
2022-08-14T23:18:54.620Z,23.88
2022-08-14T23:21:28.967Z,23.83
2022-08-14T23:24:00.631Z,23.80
2022-08-14T23:26:47.671Z,23.79
2022-08-14T23:29:20.636Z,23.73
2022-08-14T23:31:52.996Z,23.69
2022-08-14T23:34:24.980Z,23.65
2022-08-14T23:37:04.003Z,23.61
2022-08-14T23:39:39.225Z,23.53
2022-08-14T23:42:11.571Z,23.48
2022-08-14T23:44:47.247Z,23.43
2022-08-14T23:47:26.657Z,23.39
2022-08-14T23:50:03.530Z,23.34
2022-08-14T23:52:50.677Z,23.31
2022-08-14T23:55:31.034Z,23.28
2022-08-14T23:58:03.495Z,23.22
